sensor_id;sensor_type;location;lat;lon;timestamp;pressure;altitude;pressure_sealevel;temperature;humidity
64192;BME280;50497;50.720;-2.084;2024-02-15T00:00:04;96615.75;;;11.59;100.00
64192;BME280;50497;50.720;-2.084;2024-02-15T00:02:32;96611.41;;;11.58;100.00
64192;BME280;50497;50.720;-2.084;2024-02-15T00:04:57;96589.88;;;11.52;100.00
64192;BME280;50497;50.720;-2.084;2024-02-15T00:07:23;96586.19;;;11.53;100.00
64192;BME280;50497;50.720;-2.084;2024-02-15T00:09:48;96581.50;;;11.55;100.00
64192;BME280;50497;50.720;-2.084;2024-02-15T00:12:14;96541.69;;;11.52;100.00
64192;BME280;50497;50.720;-2.084;2024-02-15T00:14:39;96558.13;;;11.49;100.00
64192;BME280;50497;50.720;-2.084;2024-02-15T00:17:05;96546.22;;;11.51;100.00
64192;BME280;50497;50.720;-2.084;2024-02-15T00:19:31;96539.78;;;11.45;100.00
64192;BME280;50497;50.720;-2.084;2024-02-15T00:21:56;96517.97;;;11.49;100.00
64192;BME280;50497;50.720;-2.084;2024-02-15T00:24:22;96526.38;;;11.45;100.00
64192;BME280;50497;50.720;-2.084;2024-02-15T00:26:49;96496.75;;;11.47;100.00
64192;BME280;50497;50.720;-2.084;2024-02-15T00:29:14;96495.09;;;11.46;100.00
64192;BME280;50497;50.720;-2.084;2024-02-15T00:31:40;96470.66;;;11.49;100.00
64192;BME280;50497;50.720;-2.084;2024-02-15T00:34:06;96470.81;;;11.48;100.00
64192;BME280;50497;50.720;-2.084;2024-02-15T00:36:32;96455.94;;;11.45;100.00
64192;BME280;50497;50.720;-2.084;2024-02-15T00:39:00;96448.19;;;11.50;100.00
64192;BME280;50497;50.720;-2.084;2024-02-15T00:41:26;96466.66;;;11.45;100.00
64192;BME280;50497;50.720;-2.084;2024-02-15T00:43:51;96430.50;;;11.49;100.00
64192;BME280;50497;50.720;-2.084;2024-02-15T00:46:17;96361.28;;;11.46;100.00
64192;BME280;50497;50.720;-2.084;2024-02-15T00:48:42;96365.59;;;11.47;100.00
64192;BME280;50497;50.720;-2.084;2024-02-15T00:51:08;96350.09;;;11.57;100.00
64192;BME280;50497;50.720;-2.084;2024-02-15T00:53:34;96353.78;;;11.56;100.00
64192;BME280;50497;50.720;-2.084;2024-02-15T00:55:59;96349.06;;;11.58;100.00
64192;BME280;50497;50.720;-2.084;2024-02-15T00:58:25;96357.09;;;11.58;100.00
64192;BME280;50497;50.720;-2.084;2024-02-15T01:00:52;96338.00;;;11.61;100.00
64192;BME280;50497;50.720;-2.084;2024-02-15T01:03:18;96342.16;;;11.64;100.00
64192;BME280;50497;50.720;-2.084;2024-02-15T01:05:44;96298.56;;;11.70;100.00
64192;BME280;50497;50.720;-2.084;2024-02-15T01:08:09;96294.03;;;11.71;100.00
64192;BME280;50497;50.720;-2.084;2024-02-15T01:10:35;96293.69;;;11.74;100.00
64192;BME280;50497;50.720;-2.084;2024-02-15T01:13:02;96303.16;;;11.76;100.00
64192;BME280;50497;50.720;-2.084;2024-02-15T01:15:27;96236.41;;;11.75;100.00
64192;BME280;50497;50.720;-2.084;2024-02-15T01:17:52;96273.44;;;11.71;100.00
64192;BME280;50497;50.720;-2.084;2024-02-15T01:20:18;96232.22;;;11.65;100.00
64192;BME280;50497;50.720;-2.084;2024-02-15T01:22:43;96270.97;;;11.70;100.00
64192;BME280;50497;50.720;-2.084;2024-02-15T01:25:09;96247.69;;;11.70;100.00
64192;BME280;50497;50.720;-2.084;2024-02-15T01:27:35;96249.16;;;11.73;100.00
64192;BME280;50497;50.720;-2.084;2024-02-15T01:30:01;96230.81;;;11.70;100.00
64192;BME280;50497;50.720;-2.084;2024-02-15T01:32:26;96212.31;;;11.75;100.00
64192;BME280;50497;50.720;-2.084;2024-02-15T01:34:52;96214.63;;;11.78;100.00
64192;BME280;50497;50.720;-2.084;2024-02-15T01:37:20;96189.50;;;11.79;100.00
64192;BME280;50497;50.720;-2.084;2024-02-15T01:39:46;96157.00;;;11.82;100.00
64192;BME280;50497;50.720;-2.084;2024-02-15T01:42:12;96142.19;;;11.86;100.00
64192;BME280;50497;50.720;-2.084;2024-02-15T01:44:42;96131.56;;;11.93;100.00
64192;BME280;50497;50.720;-2.084;2024-02-15T01:47:10;96101.91;;;11.94;100.00
64192;BME280;50497;50.720;-2.084;2024-02-15T01:49:36;96099.28;;;12.01;100.00
64192;BME280;50497;50.720;-2.084;2024-02-15T01:52:02;96065.28;;;12.01;100.00
64192;BME280;50497;50.720;-2.084;2024-02-15T01:54:30;96031.09;;;12.04;100.00
64192;BME280;50497;50.720;-2.084;2024-02-15T01:56:57;96008.00;;;12.02;100.00
64192;BME280;50497;50.720;-2.084;2024-02-15T01:59:23;95997.13;;;12.11;100.00
64192;BME280;50497;50.720;-2.084;2024-02-15T02:01:49;95967.44;;;12.06;100.00
64192;BME280;50497;50.720;-2.084;2024-02-15T02:04:15;95968.06;;;12.08;100.00
64192;BME280;50497;50.720;-2.084;2024-02-15T02:06:41;95956.09;;;12.04;100.00
64192;BME280;50497;50.720;-2.084;2024-02-15T02:09:10;95931.38;;;12.08;100.00
64192;BME280;50497;50.720;-2.084;2024-02-15T02:11:38;95915.53;;;12.13;100.00
64192;BME280;50497;50.720;-2.084;2024-02-15T02:14:04;95959.22;;;12.14;100.00
64192;BME280;50497;50.720;-2.084;2024-02-15T02:16:30;95825.50;;;12.19;100.00
64192;BME280;50497;50.720;-2.084;2024-02-15T02:19:00;95803.28;;;12.25;100.00
64192;BME280;50497;50.720;-2.084;2024-02-15T02:21:27;95790.47;;;12.27;100.00
64192;BME280;50497;50.720;-2.084;2024-02-15T02:23:55;95817.88;;;12.29;100.00
64192;BME280;50497;50.720;-2.084;2024-02-15T02:26:23;95687.22;;;12.31;100.00
64192;BME280;50497;50.720;-2.084;2024-02-15T02:28:49;95617.97;;;12.28;100.00
64192;BME280;50497;50.720;-2.084;2024-02-15T02:31:15;95589.13;;;12.30;100.00
64192;BME280;50497;50.720;-2.084;2024-02-15T02:33:51;95584.19;;;12.20;100.00
64192;BME280;50497;50.720;-2.084;2024-02-15T02:36:20;95569.34;;;12.25;100.00
64192;BME280;50497;50.720;-2.084;2024-02-15T02:38:46;95567.25;;;12.27;100.00
64192;BME280;50497;50.720;-2.084;2024-02-15T02:41:13;95557.00;;;12.24;100.00
64192;BME280;50497;50.720;-2.084;2024-02-15T02:43:42;95548.53;;;12.20;100.00
64192;BME280;50497;50.720;-2.084;2024-02-15T02:46:11;95534.53;;;12.18;100.00
64192;BME280;50497;50.720;-2.084;2024-02-15T02:48:37;95507.94;;;12.23;100.00
64192;BME280;50497;50.720;-2.084;2024-02-15T02:51:03;95381.41;;;12.21;100.00
64192;BME280;50497;50.720;-2.084;2024-02-15T02:53:29;95369.25;;;12.18;100.00
64192;BME280;50497;50.720;-2.084;2024-02-15T02:55:56;95303.75;;;12.21;100.00
64192;BME280;50497;50.720;-2.084;2024-02-15T02:58:22;95285.41;;;12.18;100.00
64192;BME280;50497;50.720;-2.084;2024-02-15T03:00:48;95272.66;;;12.13;100.00
64192;BME280;50497;50.720;-2.084;2024-02-15T03:03:14;95293.44;;;12.18;100.00
64192;BME280;50497;50.720;-2.084;2024-02-15T03:05:40;95290.97;;;12.16;100.00
64192;BME280;50497;50.720;-2.084;2024-02-15T03:08:05;95048.81;;;12.06;100.00
64192;BME280;50497;50.720;-2.084;2024-02-15T03:10:31;95037.66;;;12.09;100.00
64192;BME280;50497;50.720;-2.084;2024-02-15T03:12:56;95010.03;;;12.08;100.00
64192;BME280;50497;50.720;-2.084;2024-02-15T03:15:22;95050.28;;;12.01;100.00
64192;BME280;50497;50.720;-2.084;2024-02-15T03:17:48;95064.38;;;11.90;100.00
64192;BME280;50497;50.720;-2.084;2024-02-15T03:20:14;95102.16;;;11.82;100.00
64192;BME280;50497;50.720;-2.084;2024-02-15T03:22:55;95110.22;;;11.75;100.00
64192;BME280;50497;50.720;-2.084;2024-02-15T03:25:21;95095.00;;;11.76;100.00
64192;BME280;50497;50.720;-2.084;2024-02-15T03:27:54;95101.00;;;11.71;100.00
64192;BME280;50497;50.720;-2.084;2024-02-15T03:30:22;95112.19;;;11.61;100.00
64192;BME280;50497;50.720;-2.084;2024-02-15T03:32:49;95115.28;;;11.58;100.00
64192;BME280;50497;50.720;-2.084;2024-02-15T03:35:17;95123.53;;;11.57;100.00
64192;BME280;50497;50.720;-2.084;2024-02-15T03:37:42;95129.97;;;11.49;100.00
64192;BME280;50497;50.720;-2.084;2024-02-15T03:40:08;95131.81;;;11.49;100.00
64192;BME280;50497;50.720;-2.084;2024-02-15T03:42:35;95154.50;;;11.46;100.00
64192;BME280;50497;50.720;-2.084;2024-02-15T03:45:04;95107.78;;;11.42;100.00
64192;BME280;50497;50.720;-2.084;2024-02-15T03:47:33;95114.19;;;11.41;100.00
64192;BME280;50497;50.720;-2.084;2024-02-15T03:49:59;95134.53;;;11.42;100.00
64192;BME280;50497;50.720;-2.084;2024-02-15T03:52:25;95106.59;;;11.38;100.00
64192;BME280;50497;50.720;-2.084;2024-02-15T03:54:50;95130.66;;;11.38;100.00
64192;BME280;50497;50.720;-2.084;2024-02-15T03:57:18;95118.31;;;11.37;100.00
64192;BME280;50497;50.720;-2.084;2024-02-15T03:59:46;95108.66;;;11.36;100.00
64192;BME280;50497;50.720;-2.084;2024-02-15T04:02:15;95120.38;;;11.35;100.00
64192;BME280;50497;50.720;-2.084;2024-02-15T04:04:41;95091.56;;;11.37;100.00
64192;BME280;50497;50.720;-2.084;2024-02-15T04:07:08;95099.38;;;11.38;100.00
64192;BME280;50497;50.720;-2.084;2024-02-15T04:09:33;95100.22;;;11.39;100.00
64192;BME280;50497;50.720;-2.084;2024-02-15T04:12:01;95090.13;;;11.41;100.00
64192;BME280;50497;50.720;-2.084;2024-02-15T04:14:26;95094.41;;;11.42;100.00
64192;BME280;50497;50.720;-2.084;2024-02-15T04:16:52;95084.59;;;11.36;100.00
64192;BME280;50497;50.720;-2.084;2024-02-15T04:19:18;95076.56;;;11.36;100.00
64192;BME280;50497;50.720;-2.084;2024-02-15T04:21:47;95043.03;;;11.33;100.00
64192;BME280;50497;50.720;-2.084;2024-02-15T04:24:12;95049.59;;;11.37;100.00
64192;BME280;50497;50.720;-2.084;2024-02-15T04:26:38;95042.66;;;11.30;100.00
64192;BME280;50497;50.720;-2.084;2024-02-15T04:29:04;95050.94;;;11.21;100.00
64192;BME280;50497;50.720;-2.084;2024-02-15T04:31:29;95061.22;;;11.24;100.00
64192;BME280;50497;50.720;-2.084;2024-02-15T04:33:56;95054.03;;;11.18;100.00
64192;BME280;50497;50.720;-2.084;2024-02-15T04:36:22;95068.44;;;11.24;100.00
64192;BME280;50497;50.720;-2.084;2024-02-15T04:38:52;95064.91;;;11.23;100.00
64192;BME280;50497;50.720;-2.084;2024-02-15T04:41:18;95062.22;;;11.23;100.00
64192;BME280;50497;50.720;-2.084;2024-02-15T04:43:51;95062.13;;;11.12;100.00
64192;BME280;50497;50.720;-2.084;2024-02-15T04:46:19;95068.91;;;11.14;100.00
64192;BME280;50497;50.720;-2.084;2024-02-15T04:48:50;95065.44;;;11.07;100.00
64192;BME280;50497;50.720;-2.084;2024-02-15T04:51:16;95064.41;;;11.08;100.00
64192;BME280;50497;50.720;-2.084;2024-02-15T04:53:42;95053.50;;;11.09;100.00
64192;BME280;50497;50.720;-2.084;2024-02-15T04:56:08;95045.09;;;11.06;100.00
64192;BME280;50497;50.720;-2.084;2024-02-15T04:58:39;95066.91;;;11.03;100.00
64192;BME280;50497;50.720;-2.084;2024-02-15T05:01:12;95070.59;;;11.02;100.00
64192;BME280;50497;50.720;-2.084;2024-02-15T05:03:38;95090.16;;;11.02;100.00
64192;BME280;50497;50.720;-2.084;2024-02-15T05:06:03;95110.09;;;11.00;100.00
64192;BME280;50497;50.720;-2.084;2024-02-15T05:08:34;95098.81;;;10.98;100.00
64192;BME280;50497;50.720;-2.084;2024-02-15T05:11:10;95112.59;;;10.95;100.00
64192;BME280;50497;50.720;-2.084;2024-02-15T05:13:46;95125.56;;;10.91;100.00
64192;BME280;50497;50.720;-2.084;2024-02-15T05:16:14;95096.78;;;10.93;100.00
64192;BME280;50497;50.720;-2.084;2024-02-15T05:18:41;95094.69;;;10.95;100.00
64192;BME280;50497;50.720;-2.084;2024-02-15T05:21:06;95113.63;;;10.94;100.00
64192;BME280;50497;50.720;-2.084;2024-02-15T05:23:38;95059.56;;;10.91;100.00
64192;BME280;50497;50.720;-2.084;2024-02-15T05:26:05;95052.59;;;10.84;100.00
64192;BME280;50497;50.720;-2.084;2024-02-15T05:28:31;95051.03;;;10.76;100.00
64192;BME280;50497;50.720;-2.084;2024-02-15T05:31:13;95047.13;;;10.72;100.00
64192;BME280;50497;50.720;-2.084;2024-02-15T05:33:43;95049.41;;;10.68;100.00
64192;BME280;50497;50.720;-2.084;2024-02-15T05:36:16;95059.28;;;10.68;100.00
64192;BME280;50497;50.720;-2.084;2024-02-15T05:38:42;95057.88;;;10.59;100.00
64192;BME280;50497;50.720;-2.084;2024-02-15T05:41:11;95078.19;;;10.66;100.00
64192;BME280;50497;50.720;-2.084;2024-02-15T05:43:38;95070.56;;;10.70;100.00
64192;BME280;50497;50.720;-2.084;2024-02-15T05:46:04;95069.97;;;10.68;100.00
64192;BME280;50497;50.720;-2.084;2024-02-15T05:48:29;95090.53;;;10.61;100.00
64192;BME280;50497;50.720;-2.084;2024-02-15T05:50:56;95112.56;;;10.56;100.00
64192;BME280;50497;50.720;-2.084;2024-02-15T05:53:23;95127.97;;;10.54;100.00
64192;BME280;50497;50.720;-2.084;2024-02-15T05:55:49;95115.44;;;10.54;100.00
64192;BME280;50497;50.720;-2.084;2024-02-15T05:58:15;95135.34;;;10.59;100.00
64192;BME280;50497;50.720;-2.084;2024-02-15T06:00:41;95127.53;;;10.64;100.00
64192;BME280;50497;50.720;-2.084;2024-02-15T06:03:06;95153.03;;;10.60;100.00
64192;BME280;50497;50.720;-2.084;2024-02-15T06:05:34;95163.31;;;10.63;100.00
64192;BME280;50497;50.720;-2.084;2024-02-15T06:08:00;95185.91;;;10.53;100.00
64192;BME280;50497;50.720;-2.084;2024-02-15T06:10:25;95181.38;;;10.61;100.00
64192;BME280;50497;50.720;-2.084;2024-02-15T06:12:51;95202.75;;;10.61;100.00
64192;BME280;50497;50.720;-2.084;2024-02-15T06:15:17;95229.47;;;10.54;100.00
64192;BME280;50497;50.720;-2.084;2024-02-15T06:17:42;95233.38;;;10.58;100.00
64192;BME280;50497;50.720;-2.084;2024-02-15T06:20:13;95266.25;;;10.59;100.00
64192;BME280;50497;50.720;-2.084;2024-02-15T06:22:48;95268.53;;;10.62;100.00
64192;BME280;50497;50.720;-2.084;2024-02-15T06:25:14;95286.63;;;10.60;100.00
64192;BME280;50497;50.720;-2.084;2024-02-15T06:27:40;95299.38;;;10.64;100.00
64192;BME280;50497;50.720;-2.084;2024-02-15T06:30:08;95320.94;;;10.63;100.00
64192;BME280;50497;50.720;-2.084;2024-02-15T06:32:53;95324.44;;;10.70;100.00
64192;BME280;50497;50.720;-2.084;2024-02-15T06:35:37;95307.97;;;10.80;100.00
64192;BME280;50497;50.720;-2.084;2024-02-15T06:38:22;95303.25;;;10.75;100.00
64192;BME280;50497;50.720;-2.084;2024-02-15T06:41:06;95263.97;;;10.76;100.00
64192;BME280;50497;50.720;-2.084;2024-02-15T06:43:32;95260.88;;;10.85;100.00
64192;BME280;50497;50.720;-2.084;2024-02-15T06:45:58;95231.66;;;10.90;100.00
64192;BME280;50497;50.720;-2.084;2024-02-15T06:48:23;95211.34;;;10.83;100.00
64192;BME280;50497;50.720;-2.084;2024-02-15T06:50:50;95199.81;;;10.82;100.00
64192;BME280;50497;50.720;-2.084;2024-02-15T06:53:15;95180.91;;;10.84;100.00
64192;BME280;50497;50.720;-2.084;2024-02-15T06:55:41;95186.25;;;10.77;100.00
64192;BME280;50497;50.720;-2.084;2024-02-15T06:58:07;95329.38;;;10.73;100.00
64192;BME280;50497;50.720;-2.084;2024-02-15T07:00:32;95512.13;;;10.79;100.00
64192;BME280;50497;50.720;-2.084;2024-02-15T07:02:58;95705.19;;;10.74;100.00
64192;BME280;50497;50.720;-2.084;2024-02-15T07:05:24;95877.44;;;10.71;100.00
64192;BME280;50497;50.720;-2.084;2024-02-15T07:07:53;95993.75;;;10.67;100.00
64192;BME280;50497;50.720;-2.084;2024-02-15T07:10:20;96064.53;;;10.71;100.00
64192;BME280;50497;50.720;-2.084;2024-02-15T07:12:46;96076.91;;;10.72;100.00
64192;BME280;50497;50.720;-2.084;2024-02-15T07:15:12;96135.88;;;10.71;100.00
64192;BME280;50497;50.720;-2.084;2024-02-15T07:17:38;96162.63;;;10.71;100.00
64192;BME280;50497;50.720;-2.084;2024-02-15T07:20:04;96181.59;;;10.76;100.00
64192;BME280;50497;50.720;-2.084;2024-02-15T07:22:32;96188.75;;;10.76;100.00
64192;BME280;50497;50.720;-2.084;2024-02-15T07:24:58;96218.16;;;10.76;100.00
64192;BME280;50497;50.720;-2.084;2024-02-15T07:27:23;96221.69;;;10.76;100.00
64192;BME280;50497;50.720;-2.084;2024-02-15T07:29:51;96213.03;;;10.74;100.00
64192;BME280;50497;50.720;-2.084;2024-02-15T07:32:17;96228.31;;;10.80;100.00
64192;BME280;50497;50.720;-2.084;2024-02-15T07:34:43;96199.09;;;10.79;100.00
64192;BME280;50497;50.720;-2.084;2024-02-15T07:37:10;96225.38;;;10.75;100.00
64192;BME280;50497;50.720;-2.084;2024-02-15T07:39:37;96220.66;;;10.77;100.00
64192;BME280;50497;50.720;-2.084;2024-02-15T07:42:03;96266.09;;;10.77;100.00
64192;BME280;50497;50.720;-2.084;2024-02-15T07:44:30;96270.72;;;10.83;100.00
64192;BME280;50497;50.720;-2.084;2024-02-15T07:46:58;96269.25;;;10.81;100.00
64192;BME280;50497;50.720;-2.084;2024-02-15T07:49:26;96287.03;;;10.88;100.00
64192;BME280;50497;50.720;-2.084;2024-02-15T07:51:51;96301.22;;;10.89;100.00
64192;BME280;50497;50.720;-2.084;2024-02-15T07:54:20;96311.28;;;10.87;100.00
64192;BME280;50497;50.720;-2.084;2024-02-15T07:56:48;96326.78;;;10.91;100.00
64192;BME280;50497;50.720;-2.084;2024-02-15T07:59:14;96331.22;;;10.84;100.00
64192;BME280;50497;50.720;-2.084;2024-02-15T08:01:44;96357.59;;;10.87;100.00
64192;BME280;50497;50.720;-2.084;2024-02-15T08:04:11;96374.19;;;10.98;100.00
64192;BME280;50497;50.720;-2.084;2024-02-15T08:06:36;96381.34;;;10.97;100.00
64192;BME280;50497;50.720;-2.084;2024-02-15T08:09:03;96390.22;;;10.98;100.00
64192;BME280;50497;50.720;-2.084;2024-02-15T08:11:32;96391.97;;;11.05;100.00
64192;BME280;50497;50.720;-2.084;2024-02-15T08:13:58;96434.31;;;11.02;100.00
64192;BME280;50497;50.720;-2.084;2024-02-15T08:16:26;96410.69;;;11.05;100.00
64192;BME280;50497;50.720;-2.084;2024-02-15T08:18:54;96439.88;;;11.15;100.00
64192;BME280;50497;50.720;-2.084;2024-02-15T08:21:26;96447.72;;;11.17;100.00
64192;BME280;50497;50.720;-2.084;2024-02-15T08:23:52;96424.69;;;11.31;100.00
64192;BME280;50497;50.720;-2.084;2024-02-15T08:26:18;96471.88;;;11.23;100.00
64192;BME280;50497;50.720;-2.084;2024-02-15T08:28:43;96478.84;;;11.33;100.00
64192;BME280;50497;50.720;-2.084;2024-02-15T08:31:09;96411.94;;;11.48;100.00
64192;BME280;50497;50.720;-2.084;2024-02-15T08:33:36;96387.88;;;11.48;100.00
64192;BME280;50497;50.720;-2.084;2024-02-15T08:36:04;96368.19;;;11.55;100.00
64192;BME280;50497;50.720;-2.084;2024-02-15T08:38:30;96342.34;;;11.62;100.00
64192;BME280;50497;50.720;-2.084;2024-02-15T08:40:56;96324.50;;;11.70;100.00
64192;BME280;50497;50.720;-2.084;2024-02-15T08:43:21;96283.28;;;11.86;100.00
64192;BME280;50497;50.720;-2.084;2024-02-15T08:45:46;96270.72;;;11.86;100.00
64192;BME280;50497;50.720;-2.084;2024-02-15T08:48:14;96231.47;;;11.93;100.00
64192;BME280;50497;50.720;-2.084;2024-02-15T08:50:39;96237.00;;;11.92;100.00
64192;BME280;50497;50.720;-2.084;2024-02-15T08:53:06;96258.50;;;11.98;100.00
64192;BME280;50497;50.720;-2.084;2024-02-15T08:55:32;96237.53;;;12.02;100.00
64192;BME280;50497;50.720;-2.084;2024-02-15T08:57:57;96204.22;;;12.11;100.00
64192;BME280;50497;50.720;-2.084;2024-02-15T09:00:24;96208.38;;;12.14;100.00
64192;BME280;50497;50.720;-2.084;2024-02-15T09:02:52;96235.66;;;12.24;100.00
64192;BME280;50497;50.720;-2.084;2024-02-15T09:05:18;96242.69;;;12.25;100.00
64192;BME280;50497;50.720;-2.084;2024-02-15T09:07:45;96283.44;;;12.20;100.00
64192;BME280;50497;50.720;-2.084;2024-02-15T09:10:13;96317.31;;;12.28;100.00
64192;BME280;50497;50.720;-2.084;2024-02-15T09:12:41;96328.88;;;12.29;100.00
64192;BME280;50497;50.720;-2.084;2024-02-15T09:15:08;96324.53;;;12.28;100.00
64192;BME280;50497;50.720;-2.084;2024-02-15T09:17:36;96311.66;;;12.66;100.00
64192;BME280;50497;50.720;-2.084;2024-02-15T09:20:09;96383.34;;;12.36;100.00
64192;BME280;50497;50.720;-2.084;2024-02-15T09:22:40;96398.28;;;12.67;100.00
64192;BME280;50497;50.720;-2.084;2024-02-15T09:25:07;96415.28;;;12.52;100.00
64192;BME280;50497;50.720;-2.084;2024-02-15T09:27:32;96440.34;;;12.66;100.00
64192;BME280;50497;50.720;-2.084;2024-02-15T09:29:58;96416.66;;;12.70;100.00
64192;BME280;50497;50.720;-2.084;2024-02-15T09:32:23;96365.81;;;12.83;100.00
64192;BME280;50497;50.720;-2.084;2024-02-15T09:34:48;96316.91;;;12.81;100.00
64192;BME280;50497;50.720;-2.084;2024-02-15T09:37:14;96312.41;;;12.82;100.00
64192;BME280;50497;50.720;-2.084;2024-02-15T09:39:40;96355.94;;;12.84;100.00
64192;BME280;50497;50.720;-2.084;2024-02-15T09:42:06;96377.63;;;12.89;100.00
64192;BME280;50497;50.720;-2.084;2024-02-15T09:44:31;96347.00;;;12.76;100.00
64192;BME280;50497;50.720;-2.084;2024-02-15T09:47:03;96365.66;;;12.91;100.00
64192;BME280;50497;50.720;-2.084;2024-02-15T09:49:36;96430.06;;;12.91;100.00
64192;BME280;50497;50.720;-2.084;2024-02-15T09:52:06;96484.66;;;13.05;100.00
64192;BME280;50497;50.720;-2.084;2024-02-15T09:54:39;96562.47;;;13.27;100.00
64192;BME280;50497;50.720;-2.084;2024-02-15T09:57:05;96578.97;;;13.24;100.00
64192;BME280;50497;50.720;-2.084;2024-02-15T09:59:30;96577.69;;;13.41;100.00
64192;BME280;50497;50.720;-2.084;2024-02-15T10:01:58;96619.63;;;13.64;100.00
64192;BME280;50497;50.720;-2.084;2024-02-15T10:04:24;96648.53;;;13.62;100.00
64192;BME280;50497;50.720;-2.084;2024-02-15T10:06:51;96608.47;;;13.89;100.00
64192;BME280;50497;50.720;-2.084;2024-02-15T10:09:24;96534.16;;;13.46;100.00
64192;BME280;50497;50.720;-2.084;2024-02-15T10:12:00;96491.84;;;13.76;100.00
64192;BME280;50497;50.720;-2.084;2024-02-15T10:14:28;96585.25;;;13.81;100.00
64192;BME280;50497;50.720;-2.084;2024-02-15T10:16:54;96646.31;;;13.94;100.00
64192;BME280;50497;50.720;-2.084;2024-02-15T10:19:23;96668.22;;;13.69;100.00
64192;BME280;50497;50.720;-2.084;2024-02-15T10:21:52;96695.72;;;13.93;100.00
64192;BME280;50497;50.720;-2.084;2024-02-15T10:24:24;96709.78;;;14.73;100.00
64192;BME280;50497;50.720;-2.084;2024-02-15T10:26:50;96725.78;;;14.81;100.00
64192;BME280;50497;50.720;-2.084;2024-02-15T10:29:16;96784.25;;;14.72;100.00
64192;BME280;50497;50.720;-2.084;2024-02-15T10:31:59;96867.94;;;14.34;100.00
64192;BME280;50497;50.720;-2.084;2024-02-15T10:34:25;96982.34;;;14.37;100.00
64192;BME280;50497;50.720;-2.084;2024-02-15T10:37:10;96930.53;;;15.43;100.00
64192;BME280;50497;50.720;-2.084;2024-02-15T10:39:36;96918.34;;;16.37;100.00
64192;BME280;50497;50.720;-2.084;2024-02-15T10:42:03;97008.94;;;16.66;100.00
64192;BME280;50497;50.720;-2.084;2024-02-15T10:44:31;97099.81;;;17.01;100.00
64192;BME280;50497;50.720;-2.084;2024-02-15T10:46:59;97264.34;;;17.02;100.00
64192;BME280;50497;50.720;-2.084;2024-02-15T10:49:26;97439.97;;;16.87;100.00
64192;BME280;50497;50.720;-2.084;2024-02-15T10:51:57;97581.75;;;17.20;100.00
64192;BME280;50497;50.720;-2.084;2024-02-15T10:54:46;97894.50;;;16.33;100.00
64192;BME280;50497;50.720;-2.084;2024-02-15T10:57:13;98120.53;;;16.06;100.00
64192;BME280;50497;50.720;-2.084;2024-02-15T10:59:55;98345.97;;;15.58;100.00
64192;BME280;50497;50.720;-2.084;2024-02-15T11:02:31;98570.66;;;15.31;100.00
64192;BME280;50497;50.720;-2.084;2024-02-15T11:05:06;98796.63;;;14.78;100.00
64192;BME280;50497;50.720;-2.084;2024-02-15T11:07:46;98921.91;;;14.83;100.00
64192;BME280;50497;50.720;-2.084;2024-02-15T11:10:12;99043.00;;;15.02;100.00
64192;BME280;50497;50.720;-2.084;2024-02-15T11:12:42;99168.63;;;15.03;100.00
64192;BME280;50497;50.720;-2.084;2024-02-15T11:15:09;99330.69;;;14.77;100.00
64192;BME280;50497;50.720;-2.084;2024-02-15T11:20:08;99460.25;;;16.56;100.00
64192;BME280;50497;50.720;-2.084;2024-02-15T11:22:35;99471.59;;;18.12;100.00
64192;BME280;50497;50.720;-2.084;2024-02-15T11:25:06;99732.03;;;17.27;100.00
64192;BME280;50497;50.720;-2.084;2024-02-15T11:27:37;99939.06;;;16.99;100.00
64192;BME280;50497;50.720;-2.084;2024-02-15T11:30:05;100096.09;;;16.85;100.00
64192;BME280;50497;50.720;-2.084;2024-02-15T11:32:48;100243.22;;;16.69;100.00
64192;BME280;50497;50.720;-2.084;2024-02-15T11:35:21;100300.25;;;17.32;100.00
64192;BME280;50497;50.720;-2.084;2024-02-15T11:40:16;100362.09;;;16.80;100.00
64192;BME280;50497;50.720;-2.084;2024-02-15T11:42:45;100368.94;;;16.04;100.00
64192;BME280;50497;50.720;-2.084;2024-02-15T11:45:12;100323.19;;;16.25;100.00
64192;BME280;50497;50.720;-2.084;2024-02-15T11:47:39;100277.91;;;16.06;100.00
64192;BME280;50497;50.720;-2.084;2024-02-15T11:50:09;100258.19;;;15.46;100.00
64192;BME280;50497;50.720;-2.084;2024-02-15T11:52:40;100167.31;;;15.59;100.00
64192;BME280;50497;50.720;-2.084;2024-02-15T11:55:08;100102.56;;;15.48;100.00
64192;BME280;50497;50.720;-2.084;2024-02-15T11:57:58;100063.53;;;15.76;100.00
64192;BME280;50497;50.720;-2.084;2024-02-15T12:00:33;100045.22;;;15.46;100.00
64192;BME280;50497;50.720;-2.084;2024-02-15T12:03:18;99988.63;;;15.46;100.00
64192;BME280;50497;50.720;-2.084;2024-02-15T12:06:02;100013.06;;;14.98;100.00
64192;BME280;50497;50.720;-2.084;2024-02-15T12:08:47;99998.94;;;14.83;100.00
64192;BME280;50497;50.720;-2.084;2024-02-15T12:11:32;100000.47;;;14.63;100.00
64192;BME280;50497;50.720;-2.084;2024-02-15T12:14:16;99984.34;;;14.74;100.00
64192;BME280;50497;50.720;-2.084;2024-02-15T12:17:11;99962.41;;;15.48;100.00
64192;BME280;50497;50.720;-2.084;2024-02-15T12:19:57;99976.84;;;15.36;100.00
64192;BME280;50497;50.720;-2.084;2024-02-15T12:22:34;99950.00;;;15.68;100.00
64192;BME280;50497;50.720;-2.084;2024-02-15T12:25:02;99974.28;;;15.34;100.00
64192;BME280;50497;50.720;-2.084;2024-02-15T12:27:46;99955.31;;;16.13;100.00
64192;BME280;50497;50.720;-2.084;2024-02-15T12:30:18;99935.00;;;17.14;100.00
64192;BME280;50497;50.720;-2.084;2024-02-15T12:32:47;99958.38;;;17.56;100.00
64192;BME280;50497;50.720;-2.084;2024-02-15T12:35:14;99977.72;;;17.21;100.00
64192;BME280;50497;50.720;-2.084;2024-02-15T12:40:32;100095.91;;;16.65;100.00
64192;BME280;50497;50.720;-2.084;2024-02-15T12:42:57;100145.22;;;16.78;100.00
64192;BME280;50497;50.720;-2.084;2024-02-15T12:45:26;100372.06;;;16.33;100.00
64192;BME280;50497;50.720;-2.084;2024-02-15T12:47:56;100468.41;;;15.71;100.00
64192;BME280;50497;50.720;-2.084;2024-02-15T12:50:23;100445.94;;;15.47;100.00
64192;BME280;50497;50.720;-2.084;2024-02-15T12:52:53;100413.88;;;15.05;100.00